sensor_id;sensor_type;location;lat;lon;timestamp;pressure;altitude;pressure_sealevel;temperature;humidity
68145;BME280;55400;51.824;-0.196;2023-07-31T00:02:23;99880.12999999999;;;17.07;80.56
68145;BME280;55400;51.824;-0.196;2023-07-31T00:10:23;99869.09000000001;;;17.06;80.59
68145;BME280;55400;51.824;-0.196;2023-07-31T00:14:23;99865.39;;;17.07;81.01
68145;BME280;55400;51.824;-0.196;2023-07-31T00:18:23;99850.33;;;17.05;80.76
68145;BME280;55400;51.824;-0.196;2023-07-31T00:22:23;99847.41;;;17.06;80.88
68145;BME280;55400;51.824;-0.196;2023-07-31T00:26:23;99847.41;;;17.07;81.25
68145;BME280;55400;51.824;-0.196;2023-07-31T00:34:23;99834.46;;;17.11;81.68
68145;BME280;55400;51.824;-0.196;2023-07-31T00:38:23;99828.12;;;17.08;81.69
68145;BME280;55400;51.824;-0.196;2023-07-31T00:42:24;99824.91;;;17.04;82.14
68145;BME280;55400;51.824;-0.196;2023-07-31T00:46:23;99824.91;;;16.99;82.14
68145;BME280;55400;51.824;-0.196;2023-07-31T00:50:24;99815.89;;;17.02;82.59
68145;BME280;55400;51.824;-0.196;2023-07-31T00:54:23;99809.14;;;17.00;82.13
68145;BME280;55400;51.824;-0.196;2023-07-31T00:58:23;99815.81;;;16.97;82.76
68145;BME280;55400;51.824;-0.196;2023-07-31T01:02:23;99806.59000000001;;;16.99;83.22
68145;BME280;55400;51.824;-0.196;2023-07-31T01:06:26;99800.17;;;17.02;82.56
68145;BME280;55400;51.824;-0.196;2023-07-31T01:10:25;99789.38;;;16.94;82.67
68145;BME280;55400;51.824;-0.196;2023-07-31T01:18:23;99788.3;;;16.96;82.96
68145;BME280;55400;51.824;-0.196;2023-07-31T01:22:29;99775.72;;;17.01;83.59
68145;BME280;55400;51.824;-0.196;2023-07-31T01:26:24;99765.75;;;17.00;82.78
68145;BME280;55400;51.824;-0.196;2023-07-31T01:34:24;99748.39;;;17.03;83.36
68145;BME280;55400;51.824;-0.196;2023-07-31T01:38:23;99748.39;;;17.00;83.51
68145;BME280;55400;51.824;-0.196;2023-07-31T01:42:24;99746.06999999999;;;17.07;84.72
68145;BME280;55400;51.824;-0.196;2023-07-31T01:50:24;99726.92;;;17.08;83.73
68145;BME280;55400;51.824;-0.196;2023-07-31T01:54:23;99723.20999999999;;;17.09;83.16
68145;BME280;55400;51.824;-0.196;2023-07-31T01:58:24;99710.97;;;17.06;83.58
68145;BME280;55400;51.824;-0.196;2023-07-31T02:06:24;99702.34;;;17.10;83.70
68145;BME280;55400;51.824;-0.196;2023-07-31T02:10:23;99688.4;;;17.12;83.73
68145;BME280;55400;51.824;-0.196;2023-07-31T02:14:24;99688.4;;;17.13;83.73
68145;BME280;55400;51.824;-0.196;2023-07-31T02:18:24;99685.82;;;17.12;84.14
68145;BME280;55400;51.824;-0.196;2023-07-31T02:22:24;99680.69;;;17.14;84.14
68145;BME280;55400;51.824;-0.196;2023-07-31T02:26:24;99680.69;;;17.15;83.77
68145;BME280;55400;51.824;-0.196;2023-07-31T02:30:24;99682.54;;;17.14;83.79
68145;BME280;55400;51.824;-0.196;2023-07-31T02:34:24;99670.87;;;17.09;84.52
68145;BME280;55400;51.824;-0.196;2023-07-31T02:42:24;99661.87;;;17.11;85.14
68145;BME280;55400;51.824;-0.196;2023-07-31T02:46:24;99651.28;;;17.17;84.93
68145;BME280;55400;51.824;-0.196;2023-07-31T02:50:24;99651.28;;;17.21;84.53
68145;BME280;55400;51.824;-0.196;2023-07-31T02:54:24;99643.62999999999;;;17.18;84.70
68145;BME280;55400;51.824;-0.196;2023-07-31T02:58:24;99630.5;;;17.15;84.82
68145;BME280;55400;51.824;-0.196;2023-07-31T03:02:24;99635.77;;;17.17;85.74
68145;BME280;55400;51.824;-0.196;2023-07-31T03:06:24;99638.58;;;17.20;85.60
68145;BME280;55400;51.824;-0.196;2023-07-31T03:10:24;99641.69;;;17.25;85.59
68145;BME280;55400;51.824;-0.196;2023-07-31T03:14:24;99650.67;;;17.28;85.35
68145;BME280;55400;51.824;-0.196;2023-07-31T03:18:24;99646.23;;;17.30;85.16
68145;BME280;55400;51.824;-0.196;2023-07-31T03:22:24;99641.04999999999;;;17.32;85.50
68145;BME280;55400;51.824;-0.196;2023-07-31T03:26:24;99636.17;;;17.33;86.07
68145;BME280;55400;51.824;-0.196;2023-07-31T03:30:24;99625.17;;;17.38;85.86
68145;BME280;55400;51.824;-0.196;2023-07-31T03:38:24;99623.13;;;17.36;85.48
68145;BME280;55400;51.824;-0.196;2023-07-31T03:42:24;99619.93;;;17.35;85.41
68145;BME280;55400;51.824;-0.196;2023-07-31T03:46:24;99623.24;;;17.36;85.82
68145;BME280;55400;51.824;-0.196;2023-07-31T03:50:24;99623.17;;;17.37;85.75
68145;BME280;55400;51.824;-0.196;2023-07-31T03:54:24;99615.44;;;17.41;85.95
68145;BME280;55400;51.824;-0.196;2023-07-31T03:58:24;99611.32;;;17.43;85.76
68145;BME280;55400;51.824;-0.196;2023-07-31T04:10:24;99611.95999999999;;;17.45;86.69
68145;BME280;55400;51.824;-0.196;2023-07-31T04:14:24;99605.98;;;17.49;86.61
68145;BME280;55400;51.824;-0.196;2023-07-31T04:18:24;99606.32;;;17.51;85.67
68145;BME280;55400;51.824;-0.196;2023-07-31T04:22:24;99599.51999999999;;;17.56;85.75
68145;BME280;55400;51.824;-0.196;2023-07-31T04:26:37;99605.78;;;17.57;84.46
68145;BME280;55400;51.824;-0.196;2023-07-31T04:30:54;99595.87;;;17.52;85.61
68145;BME280;55400;51.824;-0.196;2023-07-31T04:38:24;99594.3;;;17.54;85.60
68145;BME280;55400;51.824;-0.196;2023-07-31T04:42:24;99586.91;;;17.51;85.16
68145;BME280;55400;51.824;-0.196;2023-07-31T04:46:24;99592.85;;;17.53;85.39
68145;BME280;55400;51.824;-0.196;2023-07-31T04:50:24;99591.63;;;17.51;84.92
68145;BME280;55400;51.824;-0.196;2023-07-31T04:58:24;99588.61;;;17.53;85.91
68145;BME280;55400;51.824;-0.196;2023-07-31T05:02:24;99591.3;;;17.50;84.86
68145;BME280;55400;51.824;-0.196;2023-07-31T05:06:24;99601.49;;;17.45;85.32
68145;BME280;55400;51.824;-0.196;2023-07-31T05:10:24;99601.49;;;17.44;85.52
68145;BME280;55400;51.824;-0.196;2023-07-31T05:14:25;99605.33;;;17.45;86.22
68145;BME280;55400;51.824;-0.196;2023-07-31T05:18:24;99592.83;;;17.42;85.45
68145;BME280;55400;51.824;-0.196;2023-07-31T05:26:24;99591.89;;;17.43;86.03
68145;BME280;55400;51.824;-0.196;2023-07-31T05:30:24;99591.89;;;17.44;86.04
68145;BME280;55400;51.824;-0.196;2023-07-31T05:34:24;99595.33;;;17.48;86.13
68145;BME280;55400;51.824;-0.196;2023-07-31T05:38:24;99604.04999999999;;;17.43;85.21
68145;BME280;55400;51.824;-0.196;2023-07-31T05:46:24;99614.37;;;17.44;87.20
68145;BME280;55400;51.824;-0.196;2023-07-31T05:50:24;99603.72;;;17.45;85.95
68145;BME280;55400;51.824;-0.196;2023-07-31T05:54:24;99598.0;;;17.43;86.12
68145;BME280;55400;51.824;-0.196;2023-07-31T05:58:24;99599.05;;;17.47;86.08
68145;BME280;55400;51.824;-0.196;2023-07-31T06:02:24;99595.68000000001;;;17.51;86.00
68145;BME280;55400;51.824;-0.196;2023-07-31T06:06:24;99609.43;;;17.57;86.31
68145;BME280;55400;51.824;-0.196;2023-07-31T06:10:24;99600.2;;;17.59;85.67
68145;BME280;55400;51.824;-0.196;2023-07-31T06:14:24;99586.56;;;17.65;85.79
68145;BME280;55400;51.824;-0.196;2023-07-31T06:18:24;99591.90999999999;;;17.72;85.76
68145;BME280;55400;51.824;-0.196;2023-07-31T06:22:24;99590.76;;;17.78;85.48
68145;BME280;55400;51.824;-0.196;2023-07-31T06:30:24;99587.89;;;17.81;85.22
68145;BME280;55400;51.824;-0.196;2023-07-31T06:34:24;99582.65;;;17.80;84.65
68145;BME280;55400;51.824;-0.196;2023-07-31T06:38:25;99585.91;;;17.81;84.67
68145;BME280;55400;51.824;-0.196;2023-07-31T06:42:24;99581.61;;;17.89;84.51
68145;BME280;55400;51.824;-0.196;2023-07-31T06:46:24;99589.28;;;17.88;83.77
68145;BME280;55400;51.824;-0.196;2023-07-31T06:54:24;99574.64;;;17.89;84.17
68145;BME280;55400;51.824;-0.196;2023-07-31T06:58:24;99561.33;;;17.85;83.54
68145;BME280;55400;51.824;-0.196;2023-07-31T07:02:24;99555.31;;;17.80;83.43
68145;BME280;55400;51.824;-0.196;2023-07-31T07:06:24;99544.92;;;17.78;83.42
68145;BME280;55400;51.824;-0.196;2023-07-31T07:10:24;99554.03;;;17.79;83.27
68145;BME280;55400;51.824;-0.196;2023-07-31T07:14:24;99541.58;;;17.81;83.37
68145;BME280;55400;51.824;-0.196;2023-07-31T07:18:24;99541.58;;;17.84;83.37
68145;BME280;55400;51.824;-0.196;2023-07-31T07:22:24;99539.17;;;17.87;83.32
68145;BME280;55400;51.824;-0.196;2023-07-31T07:26:24;99539.17;;;17.89;83.32
68145;BME280;55400;51.824;-0.196;2023-07-31T07:30:24;99521.75;;;17.90;82.80
68145;BME280;55400;51.824;-0.196;2023-07-31T07:34:25;99521.75;;;17.92;82.69
68145;BME280;55400;51.824;-0.196;2023-07-31T07:38:24;99531.46;;;17.93;82.59
68145;BME280;55400;51.824;-0.196;2023-07-31T07:42:24;99531.46;;;17.96;82.27
68145;BME280;55400;51.824;-0.196;2023-07-31T07:46:24;99540.17;;;18.00;82.05
68145;BME280;55400;51.824;-0.196;2023-07-31T07:50:25;99539.65;;;18.02;81.78
68145;BME280;55400;51.824;-0.196;2023-07-31T07:54:05;99529.92;;;18.02;81.62
68145;BME280;55400;51.824;-0.196;2023-07-31T07:54:24;99529.92;;;18.06;81.62
68145;BME280;55400;51.824;-0.196;2023-07-31T07:58:25;99541.76999999999;;;18.05;80.42
68145;BME280;55400;51.824;-0.196;2023-07-31T08:02:25;99527.37;;;18.06;80.72
68145;BME280;55400;51.824;-0.196;2023-07-31T08:06:25;99527.37;;;18.07;80.72
68145;BME280;55400;51.824;-0.196;2023-07-31T08:10:24;99497.89;;;18.11;80.80
68145;BME280;55400;51.824;-0.196;2023-07-31T08:18:25;99509.84;;;18.09;80.28
68145;BME280;55400;51.824;-0.196;2023-07-31T08:22:25;99511.43;;;18.10;80.33
68145;BME280;55400;51.824;-0.196;2023-07-31T08:26:25;99511.43;;;18.12;80.31
68145;BME280;55400;51.824;-0.196;2023-07-31T08:30:25;99530.2;;;18.20;80.29
68145;BME280;55400;51.824;-0.196;2023-07-31T08:34:25;99523.87999999999;;;18.23;80.35
68145;BME280;55400;51.824;-0.196;2023-07-31T08:38:25;99529.67;;;18.27;80.11
68145;BME280;55400;51.824;-0.196;2023-07-31T08:43:28;99488.08;;;18.30;80.33
68145;BME280;55400;51.824;-0.196;2023-07-31T08:46:25;99477.81;;;18.37;80.33
68145;BME280;55400;51.824;-0.196;2023-07-31T08:52:10;99491.33;;;18.44;80.05
68145;BME280;55400;51.824;-0.196;2023-07-31T08:58:25;99511.91;;;18.43;79.87
68145;BME280;55400;51.824;-0.196;2023-07-31T09:02:25;99505.14;;;18.50;79.88
68145;BME280;55400;51.824;-0.196;2023-07-31T09:06:25;99505.14;;;18.51;79.88
68145;BME280;55400;51.824;-0.196;2023-07-31T09:10:25;99506.52;;;18.52;79.91
68145;BME280;55400;51.824;-0.196;2023-07-31T09:14:25;99506.52;;;18.57;79.67
68145;BME280;55400;51.824;-0.196;2023-07-31T09:18:25;99501.06;;;18.66;79.50
68145;BME280;55400;51.824;-0.196;2023-07-31T09:22:31;99498.99;;;18.69;78.45
68145;BME280;55400;51.824;-0.196;2023-07-31T09:26:28;99498.99;;;18.77;78.45
68145;BME280;55400;51.824;-0.196;2023-07-31T09:30:25;99496.09;;;18.82;78.56
68145;BME280;55400;51.824;-0.196;2023-07-31T09:34:29;99480.11;;;18.89;78.43
68145;BME280;55400;51.824;-0.196;2023-07-31T09:38:25;99471.19;;;18.94;77.75
68145;BME280;55400;51.824;-0.196;2023-07-31T09:42:25;99477.34;;;18.93;77.80
68145;BME280;55400;51.824;-0.196;2023-07-31T09:46:26;99456.95;;;18.91;77.29
68145;BME280;55400;51.824;-0.196;2023-07-31T09:50:25;99455.05;;;18.86;77.55
68145;BME280;55400;51.824;-0.196;2023-07-31T09:54:25;99455.05;;;18.83;77.80
68145;BME280;55400;51.824;-0.196;2023-07-31T09:58:25;99463.33;;;18.80;78.25
68145;BME280;55400;51.824;-0.196;2023-07-31T10:02:25;99463.33;;;18.88;78.25
68145;BME280;55400;51.824;-0.196;2023-07-31T10:10:25;99476.95;;;18.82;78.22
68145;BME280;55400;51.824;-0.196;2023-07-31T10:14:25;99490.36;;;18.74;78.51
68145;BME280;55400;51.824;-0.196;2023-07-31T10:18:25;99490.36;;;18.66;78.04
68145;BME280;55400;51.824;-0.196;2023-07-31T10:22:25;99483.78;;;18.58;77.84
68145;BME280;55400;51.824;-0.196;2023-07-31T10:26:25;99476.47;;;18.54;77.60
68145;BME280;55400;51.824;-0.196;2023-07-31T10:30:26;99469.33;;;18.57;75.87
68145;BME280;55400;51.824;-0.196;2023-07-31T10:34:25;99480.7;;;18.50;77.21
68145;BME280;55400;51.824;-0.196;2023-07-31T10:38:25;99464.94;;;18.49;74.97
68145;BME280;55400;51.824;-0.196;2023-07-31T10:42:29;99464.94;;;18.58;74.16
68145;BME280;55400;51.824;-0.196;2023-07-31T10:46:25;99461.53;;;18.72;75.42
68145;BME280;55400;51.824;-0.196;2023-07-31T10:50:25;99474.91;;;18.83;75.57
68145;BME280;55400;51.824;-0.196;2023-07-31T10:54:25;99468.42;;;18.91;74.33
68145;BME280;55400;51.824;-0.196;2023-07-31T11:03:13;99477.57;;;18.94;74.76
68145;BME280;55400;51.824;-0.196;2023-07-31T11:07:20;99462.23;;;18.95;74.58
68145;BME280;55400;51.824;-0.196;2023-07-31T11:10:25;99462.23;;;18.92;74.58
68145;BME280;55400;51.824;-0.196;2023-07-31T11:14:25;99432.74;;;18.94;73.80
68145;BME280;55400;51.824;-0.196;2023-07-31T11:18:26;99432.74;;;18.99;74.34
68145;BME280;55400;51.824;-0.196;2023-07-31T11:22:25;99425.22;;;19.10;73.45
68145;BME280;55400;51.824;-0.196;2023-07-31T11:26:37;99458.47;;;19.04;72.85
68145;BME280;55400;51.824;-0.196;2023-07-31T11:30:25;99458.47;;;19.01;72.85
68145;BME280;55400;51.824;-0.196;2023-07-31T11:38:26;99461.19;;;18.96;71.37
68145;BME280;55400;51.824;-0.196;2023-07-31T11:46:25;99450.48000000001;;;18.97;73.34
68145;BME280;55400;51.824;-0.196;2023-07-31T11:50:25;99447.16;;;18.95;73.44
68145;BME280;55400;51.824;-0.196;2023-07-31T11:54:25;99456.05;;;18.91;72.80
68145;BME280;55400;51.824;-0.196;2023-07-31T11:58:25;99449.23999999999;;;18.89;72.46
68145;BME280;55400;51.824;-0.196;2023-07-31T12:02:25;99452.73999999999;;;18.80;72.53
68145;BME280;55400;51.824;-0.196;2023-07-31T12:06:32;99458.98;;;18.88;72.06
68145;BME280;55400;51.824;-0.196;2023-07-31T12:10:26;99468.58;;;18.93;72.02
68145;BME280;55400;51.824;-0.196;2023-07-31T12:14:26;99463.97;;;18.96;71.78
68145;BME280;55400;51.824;-0.196;2023-07-31T12:18:26;99468.67;;;19.01;71.90
68145;BME280;55400;51.824;-0.196;2023-07-31T12:26:33;99446.84;;;19.06;70.93
68145;BME280;55400;51.824;-0.196;2023-07-31T12:30:26;99417.66;;;19.15;70.62
68145;BME280;55400;51.824;-0.196;2023-07-31T12:38:25;99443.73000000001;;;19.09;68.50
68145;BME280;55400;51.824;-0.196;2023-07-31T12:42:25;99443.73000000001;;;19.05;69.80
68145;BME280;55400;51.824;-0.196;2023-07-31T12:46:25;99457.15;;;18.95;69.92
68145;BME280;55400;51.824;-0.196;2023-07-31T12:50:35;99447.17000000001;;;18.90;70.39
68145;BME280;55400;51.824;-0.196;2023-07-31T12:54:25;99447.17000000001;;;18.85;70.39
68145;BME280;55400;51.824;-0.196;2023-07-31T12:58:25;99435.91;;;18.83;70.41
68145;BME280;55400;51.824;-0.196;2023-07-31T13:02:25;99435.91;;;18.86;70.41
68145;BME280;55400;51.824;-0.196;2023-07-31T13:06:25;99429.68;;;18.84;70.69
68145;BME280;55400;51.824;-0.196;2023-07-31T13:10:26;99437.98000000001;;;18.86;70.22
68145;BME280;55400;51.824;-0.196;2023-07-31T13:14:25;99427.25;;;18.78;70.60
68145;BME280;55400;51.824;-0.196;2023-07-31T13:18:25;99409.07999999999;;;18.70;70.55
68145;BME280;55400;51.824;-0.196;2023-07-31T13:30:26;99359.51;;;18.65;71.30
68145;BME280;55400;51.824;-0.196;2023-07-31T13:38:26;99337.92;;;18.73;73.06
68145;BME280;55400;51.824;-0.196;2023-07-31T13:42:25;99337.92;;;18.67;73.06
68145;BME280;55400;51.824;-0.196;2023-07-31T13:46:26;99382.92;;;18.62;73.11
68145;BME280;55400;51.824;-0.196;2023-07-31T13:50:25;99404.47;;;18.59;73.06
68145;BME280;55400;51.824;-0.196;2023-07-31T13:54:26;99404.47;;;18.51;73.06
68145;BME280;55400;51.824;-0.196;2023-07-31T13:58:25;99430.12999999999;;;18.49;73.13
68145;BME280;55400;51.824;-0.196;2023-07-31T14:02:26;99371.08;;;18.39;73.13
68145;BME280;55400;51.824;-0.196;2023-07-31T14:06:26;99371.08;;;18.36;73.59
68145;BME280;55400;51.824;-0.196;2023-07-31T14:10:26;99375.97;;;18.33;73.49
68145;BME280;55400;51.824;-0.196;2023-07-31T14:14:26;99384.93999999999;;;18.32;73.88
68145;BME280;55400;51.824;-0.196;2023-07-31T14:18:26;99364.85;;;18.30;73.83
68145;BME280;55400;51.824;-0.196;2023-07-31T14:22:27;99379.40999999999;;;18.26;74.00
68145;BME280;55400;51.824;-0.196;2023-07-31T14:26:26;99398.81;;;18.16;74.02
68145;BME280;55400;51.824;-0.196;2023-07-31T14:30:26;99400.21;;;18.06;73.90
68145;BME280;55400;51.824;-0.196;2023-07-31T14:34:26;99383.84999999999;;;17.99;74.52
68145;BME280;55400;51.824;-0.196;2023-07-31T14:42:26;99335.85;;;18.07;74.22
68145;BME280;55400;51.824;-0.196;2023-07-31T14:46:26;99307.26;;;18.18;74.43
68145;BME280;55400;51.824;-0.196;2023-07-31T14:49:21;99300.19;;;18.18;unavailable
68145;BME280;55400;51.824;-0.196;2023-07-31T14:50:46;99329.39;;;18.29;73.87
68145;BME280;55400;51.824;-0.196;2023-07-31T14:55:10;99351.12000000001;;;18.28;73.66
68145;BME280;55400;51.824;-0.196;2023-07-31T14:59:32;99347.45;;;18.26;73.52
68145;BME280;55400;51.824;-0.196;2023-07-31T15:02:29;99318.26;;;18.27;73.17
68145;BME280;55400;51.824;-0.196;2023-07-31T15:06:26;99318.26;;;18.51;73.17
68145;BME280;55400;51.824;-0.196;2023-07-31T15:10:26;99298.69;;;18.70;73.27
68145;BME280;55400;51.824;-0.196;2023-07-31T15:14:26;99298.69;;;18.80;72.64
68145;BME280;55400;51.824;-0.196;2023-07-31T15:24:20;99293.58;;;18.81;72.01
68145;BME280;55400;51.824;-0.196;2023-07-31T15:26:26;99293.58;;;18.78;72.01
68145;BME280;55400;51.824;-0.196;2023-07-31T15:30:26;99291.58;;;18.88;72.08
68145;BME280;55400;51.824;-0.196;2023-07-31T15:34:26;99290.3;;;18.98;71.75
68145;BME280;55400;51.824;-0.196;2023-07-31T15:38:26;99298.40000000001;;;19.00;70.90
68145;BME280;55400;51.824;-0.196;2023-07-31T15:43:37;99293.94;;;19.07;70.70
68145;BME280;55400;51.824;-0.196;2023-07-31T15:46:30;99295.51;;;19.04;70.50
68145;BME280;55400;51.824;-0.196;2023-07-31T15:50:26;99295.51;;;19.01;70.50
68145;BME280;55400;51.824;-0.196;2023-07-31T15:54:26;99295.25;;;19.05;70.21
68145;BME280;55400;51.824;-0.196;2023-07-31T15:58:26;99271.69;;;19.00;69.85
68145;BME280;55400;51.824;-0.196;2023-07-31T16:02:26;99271.69;;;18.93;69.85
68145;BME280;55400;51.824;-0.196;2023-07-31T16:06:26;99268.08;;;18.82;69.95
68145;BME280;55400;51.824;-0.196;2023-07-31T16:10:26;99281.45;;;18.76;69.87
68145;BME280;55400;51.824;-0.196;2023-07-31T16:14:26;99275.42;;;18.71;69.91
68145;BME280;55400;51.824;-0.196;2023-07-31T16:18:26;99275.42;;;18.58;69.69
68145;BME280;55400;51.824;-0.196;2023-07-31T16:22:26;99272.86;;;18.53;69.83
68145;BME280;55400;51.824;-0.196;2023-07-31T16:26:26;99272.86;;;18.49;70.06
68145;BME280;55400;51.824;-0.196;2023-07-31T16:30:26;99261.87999999999;;;18.43;69.98
68145;BME280;55400;51.824;-0.196;2023-07-31T16:38:26;99263.28;;;18.42;70.58
68145;BME280;55400;51.824;-0.196;2023-07-31T16:42:26;99267.47;;;18.33;70.71
68145;BME280;55400;51.824;-0.196;2023-07-31T16:46:26;99265.56;;;18.50;70.98
68145;BME280;55400;51.824;-0.196;2023-07-31T16:50:26;99256.45;;;18.92;71.17
68145;BME280;55400;51.824;-0.196;2023-07-31T16:54:27;99244.48;;;19.00;70.41
68145;BME280;55400;51.824;-0.196;2023-07-31T16:58:26;99244.48;;;19.05;70.05
68145;BME280;55400;51.824;-0.196;2023-07-31T17:02:26;99246.0;;;19.17;70.04
68145;BME280;55400;51.824;-0.196;2023-07-31T17:06:26;99239.87;;;19.35;70.01
68145;BME280;55400;51.824;-0.196;2023-07-31T17:10:26;99221.68000000001;;;19.45;68.89
68145;BME280;55400;51.824;-0.196;2023-07-31T17:14:26;99211.65999999999;;;19.36;68.45
68145;BME280;55400;51.824;-0.196;2023-07-31T17:18:51;99216.16;;;19.34;68.33
68145;BME280;55400;51.824;-0.196;2023-07-31T17:23:08;99207.73000000001;;;19.17;68.28
68145;BME280;55400;51.824;-0.196;2023-07-31T17:26:26;99207.73000000001;;;19.06;68.28
68145;BME280;55400;51.824;-0.196;2023-07-31T17:30:26;99211.28;;;19.03;68.45
68145;BME280;55400;51.824;-0.196;2023-07-31T17:34:26;99214.36;;;18.98;68.42
68145;BME280;55400;51.824;-0.196;2023-07-31T17:38:26;99195.92;;;19.01;68.15
68145;BME280;55400;51.824;-0.196;2023-07-31T17:42:26;99195.92;;;19.03;68.15
68145;BME280;55400;51.824;-0.196;2023-07-31T17:46:26;99190.66;;;19.00;68.01
68145;BME280;55400;51.824;-0.196;2023-07-31T17:50:26;99200.9;;;18.88;67.66
68145;BME280;55400;51.824;-0.196;2023-07-31T17:54:26;99194.86;;;18.80;67.77
68145;BME280;55400;51.824;-0.196;2023-07-31T17:58:26;99190.28;;;18.78;67.78
68145;BME280;55400;51.824;-0.196;2023-07-31T18:02:26;99194.62;;;18.76;67.86
68145;BME280;55400;51.824;-0.196;2023-07-31T18:06:26;99189.59;;;18.71;67.79
68145;BME280;55400;51.824;-0.196;2023-07-31T18:10:26;99184.25;;;18.64;67.51
68145;BME280;55400;51.824;-0.196;2023-07-31T18:14:26;99181.95;;;18.56;67.64
68145;BME280;55400;51.824;-0.196;2023-07-31T18:18:26;99181.95;;;18.60;67.62
68145;BME280;55400;51.824;-0.196;2023-07-31T18:26:26;99183.61;;;18.65;67.28
68145;BME280;55400;51.824;-0.196;2023-07-31T18:30:26;99183.61;;;18.69;67.04
68145;BME280;55400;51.824;-0.196;2023-07-31T18:34:26;99182.23000000001;;;18.71;66.94
68145;BME280;55400;51.824;-0.196;2023-07-31T18:38:26;99177.0;;;18.64;66.62
68145;BME280;55400;51.824;-0.196;2023-07-31T18:42:26;99177.0;;;18.60;66.70
68145;BME280;55400;51.824;-0.196;2023-07-31T18:46:26;99170.06999999999;;;18.56;66.48
68145;BME280;55400;51.824;-0.196;2023-07-31T18:50:26;99166.53;;;18.50;66.77
68145;BME280;55400;51.824;-0.196;2023-07-31T18:54:26;99171.69;;;18.47;67.04
68145;BME280;55400;51.824;-0.196;2023-07-31T18:58:26;99172.97;;;18.45;67.42
68145;BME280;55400;51.824;-0.196;2023-07-31T19:02:26;99172.97;;;18.43;67.68
68145;BME280;55400;51.824;-0.196;2023-07-31T19:06:26;99165.71;;;18.39;67.80
68145;BME280;55400;51.824;-0.196;2023-07-31T19:10:26;99165.01;;;18.36;68.03
68145;BME280;55400;51.824;-0.196;2023-07-31T19:14:26;99165.01;;;18.39;68.19
68145;BME280;55400;51.824;-0.196;2023-07-31T19:18:27;99167.54;;;18.43;68.30
68145;BME280;55400;51.824;-0.196;2023-07-31T19:22:26;99163.89;;;18.39;68.26
68145;BME280;55400;51.824;-0.196;2023-07-31T19:26:26;99168.52;;;18.33;68.20
68145;BME280;55400;51.824;-0.196;2023-07-31T19:30:26;99154.71;;;18.26;68.23
68145;BME280;55400;51.824;-0.196;2023-07-31T19:34:27;99155.6;;;18.18;68.32
68145;BME280;55400;51.824;-0.196;2023-07-31T19:38:26;99157.87;;;18.15;68.32
68145;BME280;55400;51.824;-0.196;2023-07-31T19:42:27;99157.87;;;18.13;68.70
68145;BME280;55400;51.824;-0.196;2023-07-31T19:46:26;99151.76;;;18.11;68.47
68145;BME280;55400;51.824;-0.196;2023-07-31T19:50:27;99148.99;;;18.07;68.20
68145;BME280;55400;51.824;-0.196;2023-07-31T19:54:27;99152.12;;;17.97;68.74
68145;BME280;55400;51.824;-0.196;2023-07-31T19:58:27;99152.12;;;17.95;68.86
68145;BME280;55400;51.824;-0.196;2023-07-31T20:02:27;99150.55;;;17.87;68.99
68145;BME280;55400;51.824;-0.196;2023-07-31T20:06:27;99158.5;;;17.81;69.43
68145;BME280;55400;51.824;-0.196;2023-07-31T20:10:27;99158.5;;;17.76;69.43
68145;BME280;55400;51.824;-0.196;2023-07-31T20:14:27;99156.76999999999;;;17.70;69.57
68145;BME280;55400;51.824;-0.196;2023-07-31T20:18:27;99158.95000000001;;;17.64;69.65
68145;BME280;55400;51.824;-0.196;2023-07-31T20:22:27;99160.74;;;17.62;69.80
68145;BME280;55400;51.824;-0.196;2023-07-31T20:26:27;99164.73;;;17.60;69.87
68145;BME280;55400;51.824;-0.196;2023-07-31T20:30:27;99162.8;;;17.59;70.03
68145;BME280;55400;51.824;-0.196;2023-07-31T20:34:27;99170.47;;;17.62;70.43
68145;BME280;55400;51.824;-0.196;2023-07-31T20:38:27;99170.47;;;17.66;70.43
68145;BME280;55400;51.824;-0.196;2023-07-31T20:42:27;99161.27;;;17.67;70.71
68145;BME280;55400;51.824;-0.196;2023-07-31T20:46:27;99161.27;;;17.65;70.71
68145;BME280;55400;51.824;-0.196;2023-07-31T20:50:27;99159.09;;;17.63;70.95
68145;BME280;55400;51.824;-0.196;2023-07-31T20:55:39;99159.77;;;17.57;71.43
68145;BME280;55400;51.824;-0.196;2023-07-31T20:58:26;99159.77;;;17.57;unavailable
68145;BME280;55400;51.824;-0.196;2023-07-31T20:58:27;99155.62;;;17.49;71.43
68145;BME280;55400;51.824;-0.196;2023-07-31T21:02:34;99162.98000000001;;;17.47;71.19
68145;BME280;55400;51.824;-0.196;2023-07-31T21:06:42;99156.3;;;17.43;70.87
68145;BME280;55400;51.824;-0.196;2023-07-31T21:10:53;99166.90999999999;;;17.39;71.17
68145;BME280;55400;51.824;-0.196;2023-07-31T21:13:38;99166.90999999999;;;17.39;71.17
68145;BME280;55400;51.824;-0.196;2023-07-31T21:16:23;99167.61;;;17.34;71.19
68145;BME280;55400;51.824;-0.196;2023-07-31T21:18:27;99166.44;;;17.32;71.19
68145;BME280;55400;51.824;-0.196;2023-07-31T21:22:27;99166.44;;;17.31;71.20
68145;BME280;55400;51.824;-0.196;2023-07-31T21:26:27;99161.99;;;17.29;71.36
68145;BME280;55400;51.824;-0.196;2023-07-31T21:30:27;99161.99;;;17.28;71.28
68145;BME280;55400;51.824;-0.196;2023-07-31T21:34:27;99165.59;;;17.22;71.24
68145;BME280;55400;51.824;-0.196;2023-07-31T21:38:27;99165.59;;;17.19;71.48
68145;BME280;55400;51.824;-0.196;2023-07-31T21:42:27;99162.97;;;17.21;71.58
68145;BME280;55400;51.824;-0.196;2023-07-31T21:46:27;99159.41;;;17.18;71.45
68145;BME280;55400;51.824;-0.196;2023-07-31T21:49:20;99157.62;;;17.18;71.14
68145;BME280;55400;51.824;-0.196;2023-07-31T21:50:27;99150.83;;;17.14;71.34
68145;BME280;55400;51.824;-0.196;2023-07-31T21:54:27;99150.83;;;17.11;71.34
68145;BME280;55400;51.824;-0.196;2023-07-31T21:58:35;99148.35;;;17.16;71.41
68145;BME280;55400;51.824;-0.196;2023-07-31T22:02:27;99148.35;;;17.21;71.41
68145;BME280;55400;51.824;-0.196;2023-07-31T22:06:27;99131.72;;;17.25;71.64
68145;BME280;55400;51.824;-0.196;2023-07-31T22:10:27;99131.72;;;17.22;71.64
68145;BME280;55400;51.824;-0.196;2023-07-31T22:14:27;99127.29000000001;;;17.24;71.68
68145;BME280;55400;51.824;-0.196;2023-07-31T22:18:27;99130.03;;;17.18;71.76